Delta Virtual Airport Information Service

Karachi Jinnah International Airport

ICAO: OPKC Country: Pakistan
Latitude: 24.9065 Longitude: 67.1608
Latest Arrival : DAC1502 (LUKK-OPKC) Latest Departure : DAC047 (OPKC-KSDF)


WX CaptureLIVE
Data provided by noaa.gov | Fetched at 00:48:36

METAR : OPKC 080625Z VRB03KT 6000 NSC 30/18 Q1013 NOSIG

TAF : OPKC 080330Z 0806/0912 23007G17KT 6000 SCT025 FM081900 25010KT 4000 FU NSC TEMPO 0900/0904 28005KT 3000 FU FEW020 FM090400 24007G17KT 6000 NSC


Runway Data for OPKC
Data provided by openaviationdata.com

Runway ID Mag Var Hdg Length Elevation Surface ILS Freq ILS Id ILS Slope
07L 0 74° 10457 ft 100 ft Concrete -- -- --
07R 0 74° 11159 ft 100 ft Concrete -- -- --
25L 0 254° 11159 ft 100 ft Concrete 109.7 IQA 3
25R 0 254° 10457 ft 100 ft Concrete 110.1 IKC 3

Karachi Jinnah International Airport, Pakistan
Use only for reference purposes



Not for navigational purposes.